Time;durP1;ratioP1;P1;durP2;ratioP2;P2;SDS_P1;SDS_P2;PMS_P1;PMS_P2;Temp;Humidity;BMP_temperature;BMP_pressure;BME280_temperature;BME280_humidity;BME280_pressure;Samples;Min_cycle;Max_cycle;Signal;HPM_P1;HPM_P2
2021/01/18 00:02:57;;;;;;;;;;;;;;;;;;;;;
2021/01/18 00:05:48;;;;;;;13.30;8.97;;;6.20;99.90;;;;;;6077637;23;20418;-80
2021/01/18 00:08:26;;;;;;;16.53;9.50;;;6.20;99.90;;;;;;6097577;23;20528;-78
2021/01/18 00:11:41;;;;;;;15.30;9.40;;;6.20;99.90;;;;;;6097046;23;20480;-78
2021/01/18 00:14:54;;;;;;;;;;;;;;;;;;;;;
2021/01/18 00:18:06;;;;;;;14.73;8.83;;;6.20;99.90;;;;;;6096291;23;20412;-78
2021/01/18 00:21:02;;;;;;;14.20;9.53;;;6.20;99.90;;;;;;6096555;23;20783;-78
2021/01/18 00:23:42;;;;;;;16.27;9.53;;;6.20;99.90;;;;;;6107713;23;20419;-79
2021/01/18 00:27:07;;;;;;;12.80;8.90;;;6.20;99.90;;;;;;6118128;23;20400;-81
2021/01/18 00:29:48;;;;;;;16.97;8.07;;;6.20;99.90;;;;;;6094147;23;20816;-78
2021/01/18 00:33:12;;;;;;;14.40;8.87;;;6.20;99.90;;;;;;6122243;23;20628;-78
2021/01/18 00:35:43;;;;;;;23.80;9.33;;;6.20;99.90;;;;;;6091912;23;20447;-81
2021/01/18 00:38:35;;;;;;;17.63;8.30;;;6.20;99.90;;;;;;6119420;23;20627;-81
2021/01/18 00:44:27;;;;;;;17.10;9.30;;;6.20;99.90;;;;;;6099809;23;20440;-79
2021/01/18 00:47:21;;;;;;;17.27;9.40;;;6.20;99.90;;;;;;6113539;23;20474;-78
2021/01/18 00:49:56;;;;;;;12.83;9.10;;;6.30;99.90;;;;;;6106830;23;20415;-79
2021/01/18 00:56:54;;;;;;;13.20;8.13;;;6.30;99.90;;;;;;6121530;23;20447;-81
2021/01/18 01:00:11;;;;;;;13.17;8.67;;;6.20;99.90;;;;;;6101750;23;20416;-81
2021/01/18 01:03:16;;;;;;;24.43;9.33;;;6.20;99.90;;;;;;6101697;23;20955;-79
2021/01/18 01:06:21;;;;;;;15.30;9.60;;;6.20;99.90;;;;;;6011811;23;20410;-79
2021/01/18 01:12:32;;;;;;;15.90;8.93;;;6.20;99.90;;;;;;6032976;23;21009;-80
2021/01/18 01:15:28;;;;;;;16.87;8.83;;;6.20;99.90;;;;;;6011993;23;20666;-81
2021/01/18 01:18:14;;;;;;;17.57;8.73;;;6.20;99.90;;;;;;6013378;23;20485;-82
2021/01/18 01:20:45;;;;;;;14.27;8.77;;;6.20;99.90;;;;;;6032758;23;20419;-80
2021/01/18 01:23:20;;;;;;;15.10;9.10;;;6.20;99.90;;;;;;6032236;23;20424;-82
2021/01/18 01:25:52;;;;;;;11.40;7.87;;;6.10;99.90;;;;;;6008407;23;21018;-80
2021/01/18 01:28:28;;;;;;;17.60;9.10;;;6.20;99.90;;;;;;6010504;23;20422;-80
2021/01/18 01:31:16;;;;;;;18.30;9.80;;;6.20;99.90;;;;;;6031395;23;20504;-81
2021/01/18 01:33:57;;;;;;;13.13;9.60;;;6.20;99.90;;;;;;6031034;23;20458;-81
2021/01/18 01:36:55;;;;;;;11.17;9.03;;;6.10;99.90;;;;;;6005906;23;20525;-81
2021/01/18 01:39:36;;;;;;;14.57;9.33;;;6.20;99.90;;;;;;6009721;23;20428;-80
2021/01/18 01:42:21;;;;;;;15.03;10.07;;;6.20;99.90;;;;;;6045572;23;20448;-79
2021/01/18 01:44:51;;;;;;;16.33;10.30;;;6.20;99.90;;;;;;6118150;23;20490;-79
2021/01/18 01:47:38;;;;;;;15.23;10.97;;;6.20;99.90;;;;;;6119336;23;20443;-83
2021/01/18 01:50:51;;;;;;;14.03;10.40;;;6.20;99.90;;;;;;6118823;23;20451;-79
2021/01/18 01:53:38;;;;;;;12.83;9.93;;;6.20;99.90;;;;;;6098499;23;20435;-80
2021/01/18 01:56:27;;;;;;;13.97;9.90;;;6.20;99.90;;;;;;6128786;23;20456;-82
2021/01/18 01:58:57;;;;;;;15.33;10.60;;;6.20;99.90;;;;;;6124066;23;20433;-78
2021/01/18 02:01:43;;;;;;;18.87;11.40;;;6.20;99.90;;;;;;6130654;23;20482;-78
2021/01/18 02:04:19;;;;;;;14.67;11.43;;;6.20;99.90;;;;;;6125929;23;20517;-79
2021/01/18 02:07:19;;;;;;;15.67;10.77;;;6.20;99.90;;;;;;6121201;23;20407;-81
2021/01/18 02:10:07;;;;;;;21.57;10.70;;;6.20;99.90;;;;;;6118738;23;20578;-79
2021/01/18 02:13:22;;;;;;;20.90;11.63;;;6.10;99.90;;;;;;6125653;23;20452;-77
2021/01/18 02:16:21;;;;;;;21.00;11.47;;;6.10;99.90;;;;;;6142186;23;20453;-81
2021/01/18 02:19:28;;;;;;;16.43;10.10;;;6.10;99.90;;;;;;6124944;23;20419;-78
2021/01/18 02:22:26;;;;;;;18.07;10.10;;;6.10;99.90;;;;;;6123159;23;20962;-82
2021/01/18 02:25:23;;;;;;;15.40;10.57;;;6.10;99.90;;;;;;6119972;23;20454;-80
2021/01/18 02:28:26;;;;;;;15.97;9.63;;;6.10;99.90;;;;;;6122568;23;20420;-81
2021/01/18 02:31:33;;;;;;;18.50;11.80;;;6.10;99.90;;;;;;6125939;23;20475;-76
2021/01/18 02:37:07;;;;;;;13.67;9.60;;;6.20;99.90;;;;;;6187723;23;20449;-79
2021/01/18 02:43:48;;;;;;;10.10;8.27;;;6.10;99.90;;;;;;6069822;23;20389;-77
2021/01/18 02:46:36;;;;;;;14.40;8.50;;;6.10;99.90;;;;;;6037815;23;20446;-79
2021/01/18 02:49:43;;;;;;;15.23;8.47;;;6.10;99.90;;;;;;6017761;23;20499;-79
2021/01/18 02:52:46;;;;;;;10.37;7.37;;;6.00;99.90;;;;;;6036547;23;20414;-79
2021/01/18 02:55:47;;;;;;;14.17;8.43;;;6.00;99.90;;;;;;6027686;23;20450;-80
2021/01/18 02:58:22;;;;;;;9.87;8.17;;;6.00;99.90;;;;;;6012944;23;20429;-79
2021/01/18 03:01:17;;;;;;;11.50;7.20;;;6.10;99.90;;;;;;6040428;23;20418;-80
2021/01/18 03:03:59;;;;;;;9.80;6.47;;;6.00;99.90;;;;;;6038319;23;20425;-79
2021/01/18 03:07:14;;;;;;;11.00;5.80;;;6.10;99.90;;;;;;6015159;23;20417;-77
2021/01/18 03:10:34;;;;;;;11.67;6.03;;;6.00;99.90;;;;;;6037419;23;20816;-80
2021/01/18 03:13:24;;;;;;;12.30;5.83;;;6.00;99.90;;;;;;6038338;23;21044;-80
2021/01/18 03:16:20;;;;;;;8.20;5.83;;;6.00;99.90;;;;;;6033494;23;20931;-78
2021/01/18 03:18:52;;;;;;;9.43;5.90;;;6.00;99.90;;;;;;6163982;23;20413;-79
2021/01/18 03:21:52;;;;;;;13.83;9.60;;;6.10;99.90;;;;;;6137170;23;20395;-79
2021/01/18 03:24:45;;;;;;;8.70;6.27;;;6.10;99.90;;;;;;6141521;23;21153;-80
2021/01/18 03:31:36;;;;;;;9.77;5.93;;;6.10;99.90;;;;;;6131106;23;20464;-79
2021/01/18 03:34:48;;;;;;;11.10;5.70;;;6.10;99.90;;;;;;6127821;23;20434;-78
2021/01/18 03:37:17;;;;;;;10.90;7.70;;;6.10;99.90;;;;;;6128610;23;20412;-78
2021/01/18 03:40:21;;;;;;;12.77;6.67;;;6.10;99.90;;;;;;6110174;23;20432;-79
2021/01/18 03:43:25;;;;;;;12.27;7.60;;;6.10;99.90;;;;;;6106190;23;20439;-79
2021/01/18 03:46:00;;;;;;;10.47;7.10;;;6.20;99.90;;;;;;6019680;23;20497;-79
2021/01/18 03:48:40;;;;;;;9.03;5.67;;;6.10;99.90;;;;;;6105143;23;20404;-79
2021/01/18 03:51:38;;;;;;;;;;;;;;;;;;;;;
2021/01/18 03:54:46;;;;;;;9.57;7.03;;;6.10;99.90;;;;;;6010397;23;20435;-80
2021/01/18 03:58:23;;;;;;;8.77;6.97;;;6.10;99.90;;;;;;5989410;23;20411;-78
2021/01/18 04:01:26;;;;;;;10.60;6.37;;;6.10;99.90;;;;;;6005643;23;20455;-77
2021/01/18 04:04:07;;;;;;;8.70;6.33;;;6.20;99.90;;;;;;5984725;23;20790;-78
2021/01/18 04:07:06;;;;;;;;;;;;;;;;;;;;;
2021/01/18 04:10:26;;;;;;;10.87;6.90;;;6.20;99.90;;;;;;6009113;23;20494;-78
2021/01/18 04:13:42;;;;;;;8.77;6.53;;;6.20;99.90;;;;;;5969473;23;20415;-78
2021/01/18 04:17:01;;;;;;;12.30;6.37;;;6.20;99.90;;;;;;5992379;23;20422;-78
2021/01/18 04:20:07;;;;;;;11.80;6.70;;;6.20;99.90;;;;;;5976422;23;20408;-79
2021/01/18 04:23:21;;;;;;;9.90;6.60;;;6.20;99.90;;;;;;6000980;23;20444;-79
2021/01/18 04:26:30;;;;;;;9.30;6.43;;;6.20;99.90;;;;;;5962949;23;20450;-79
2021/01/18 04:29:28;;;;;;;11.17;6.10;;;6.20;99.90;;;;;;5880313;24;20415;-79
2021/01/18 04:36:38;;;;;;;10.33;6.33;;;6.10;99.90;;;;;;5980122;23;20463;-79
2021/01/18 04:39:44;;;;;;;8.80;7.07;;;6.10;99.90;;;;;;5961013;24;20439;-79
2021/01/18 04:43:30;;;;;;;13.97;7.37;;;6.20;99.90;;;;;;5978515;24;20396;-80
2021/01/18 04:46:19;;;;;;;13.43;8.20;;;6.20;99.90;;;;;;6141714;23;20461;-79
2021/01/18 04:49:41;;;;;;;11.10;6.93;;;6.20;99.90;;;;;;6080444;23;20437;-79
2021/01/18 04:53:15;;;;;;;12.43;7.10;;;6.10;99.90;;;;;;5927199;24;20410;-79
2021/01/18 04:56:33;;;;;;;12.20;8.10;;;6.20;99.90;;;;;;5905195;24;20453;-78
2021/01/18 04:59:44;;;;;;;11.60;7.80;;;6.20;99.90;;;;;;5870683;24;20414;-79
2021/01/18 05:03:20;;;;;;;9.93;7.60;;;6.10;99.90;;;;;;5899861;24;20501;-79
2021/01/18 05:10:29;;;;;;;10.50;7.87;;;6.10;99.90;;;;;;5906639;24;20809;-80
2021/01/18 05:13:31;;;;;;;14.40;8.20;;;6.20;99.90;;;;;;5850995;24;20513;-78
2021/01/18 05:16:16;;;;;;;9.87;7.70;;;6.20;99.90;;;;;;5843871;24;20460;-80
2021/01/18 05:19:20;;;;;;;10.40;7.20;;;6.20;99.90;;;;;;5840009;24;20735;-79
2021/01/18 05:23:07;;;;;;;;;;;;;;;;;;;;;
2021/01/18 05:26:14;;;;;;;12.87;7.50;;;6.20;99.90;;;;;;5854998;24;20451;-80
2021/01/18 05:29:44;;;;;;;13.00;7.10;;;6.20;99.90;;;;;;5869270;23;20881;-82
2021/01/18 05:32:30;;;;;;;11.30;7.20;;;6.20;99.90;;;;;;5999887;23;20461;-79
2021/01/18 05:35:32;;;;;;;12.83;7.50;;;6.20;99.90;;;;;;6021419;23;20777;-80
2021/01/18 05:38:26;;;;;;;14.50;7.67;;;6.20;99.90;;;;;;6082412;23;20416;-82
2021/01/18 05:41:14;;;;;;;10.70;7.10;;;6.20;99.90;;;;;;6118927;23;20515;-80
2021/01/18 05:44:11;;;;;;;9.80;7.67;;;6.20;99.90;;;;;;6093572;23;20507;-80
2021/01/18 05:47:20;;;;;;;11.20;8.10;;;6.20;99.90;;;;;;6105880;23;20416;-82
2021/01/18 05:53:35;;;;;;;13.10;7.43;;;6.20;99.90;;;;;;6129410;23;20423;-78
2021/01/18 05:56:44;;;;;;;11.63;7.70;;;6.20;99.90;;;;;;6129334;23;20498;-79
2021/01/18 05:59:44;;;;;;;12.20;7.43;;;6.20;99.90;;;;;;6122990;23;20411;-79
2021/01/18 06:02:32;;;;;;;21.73;8.13;;;6.20;99.90;;;;;;6124894;23;20404;-78
2021/01/18 06:05:47;;;;;;;;;;;;;;;;;;;;;
2021/01/18 06:08:34;;;;;;;15.00;8.13;;;6.30;99.90;;;;;;6113095;23;20499;-78
2021/01/18 06:11:41;;;;;;;11.07;7.40;;;6.20;99.90;;;;;;6134955;23;20411;-79
2021/01/18 06:14:28;;;;;;;12.03;7.90;;;6.20;99.90;;;;;;6131934;23;20436;-79
2021/01/18 06:17:45;;;;;;;15.87;8.17;;;6.20;99.90;;;;;;6141489;23;20475;-78
2021/01/18 06:20:27;;;;;;;13.77;8.50;;;6.20;99.90;;;;;;6143612;23;20407;-80
2021/01/18 06:23:32;;;;;;;10.43;7.93;;;6.20;99.90;;;;;;6141939;23;20404;-78
2021/01/18 06:26:36;;;;;;;14.47;7.87;;;6.20;99.90;;;;;;6017560;23;20533;-78
2021/01/18 06:29:07;;;;;;;23.50;8.37;;;6.20;99.90;;;;;;5991086;23;20892;-77
2021/01/18 06:32:27;;;;;;;14.27;9.20;;;6.20;99.90;;;;;;6016101;23;21047;-78
2021/01/18 06:35:33;;;;;;;17.03;8.60;;;6.20;99.90;;;;;;6013155;23;20459;-78
2021/01/18 06:38:54;;;;;;;16.33;8.47;;;6.10;99.90;;;;;;6013524;23;20420;-77
2021/01/18 06:41:38;;;;;;;17.20;8.37;;;6.20;99.90;;;;;;6012400;23;20419;-79
2021/01/18 06:44:16;;;;;;;13.90;8.80;;;6.40;99.90;;;;;;6010458;23;20439;-79
2021/01/18 06:50:06;;;;;;;15.53;8.73;;;6.40;99.90;;;;;;6007629;23;20418;-78
2021/01/18 06:53:32;;;;;;;14.57;8.33;;;6.30;99.90;;;;;;5970476;23;20535;-79
2021/01/18 06:57:14;;;;;;;;;;;;;;;;;;;;;
2021/01/18 07:00:04;;;;;;;13.80;8.80;;;6.20;99.90;;;;;;6013406;23;20442;-78
2021/01/18 07:02:54;;;;;;;12.90;8.33;;;6.20;99.90;;;;;;6003758;23;20958;-76
2021/01/18 07:05:45;;;;;;;20.07;8.60;;;6.20;99.90;;;;;;6132092;23;20446;-79
2021/01/18 07:09:04;;;;;;;13.53;8.07;;;6.20;99.90;;;;;;6131788;23;20415;-77
2021/01/18 07:12:30;;;;;;;16.47;9.10;;;6.20;99.90;;;;;;6134257;23;20495;-77
2021/01/18 07:15:39;;;;;;;12.57;7.83;;;6.40;99.90;;;;;;6133657;23;20458;-77
2021/01/18 07:19:11;;;;;;;16.60;8.27;;;6.60;99.90;;;;;;6132274;23;20412;-77
2021/01/18 07:30:31;;;;;;;17.67;8.37;;;6.30;99.90;;;;;;6064021;23;20774;-78
2021/01/18 07:33:48;;;;;;;14.87;8.50;;;6.50;99.90;;;;;;6100748;23;20416;-78
2021/01/18 07:37:05;;;;;;;14.17;8.37;;;6.50;99.90;;;;;;6132723;23;20487;-78
2021/01/18 07:39:40;;;;;;;21.43;8.80;;;6.40;99.90;;;;;;6112248;23;20847;-79
2021/01/18 07:42:43;;;;;;;16.10;9.07;;;6.40;99.90;;;;;;6136649;23;20801;-77
2021/01/18 07:45:43;;;;;;;17.20;8.80;;;6.60;99.90;;;;;;6132524;23;20475;-80
2021/01/18 07:48:51;;;;;;;14.40;10.20;;;6.60;99.90;;;;;;6133634;23;20898;-78
2021/01/18 07:52:14;;;;;;;15.00;7.90;;;6.60;99.90;;;;;;6131382;23;20408;-79
2021/01/18 07:55:23;;;;;;;17.50;9.13;;;6.50;99.90;;;;;;6114913;23;20434;-77
2021/01/18 07:58:41;;;;;;;14.90;8.37;;;6.40;99.90;;;;;;6143905;23;20407;-77
2021/01/18 08:01:24;;;;;;;22.60;10.23;;;6.40;99.90;;;;;;6101426;23;20403;-78
2021/01/18 08:04:28;;;;;;;13.97;8.90;;;6.30;99.90;;;;;;6131905;23;20435;-77
2021/01/18 08:07:29;;;;;;;26.30;11.17;;;6.90;99.90;;;;;;6137430;23;20423;-80
2021/01/18 08:10:55;;;;;;;16.43;10.07;;;7.10;99.90;;;;;;6129302;23;20408;-79
2021/01/18 08:13:44;;;;;;;11.33;9.97;;;7.10;99.90;;;;;;6129298;23;20427;-77
2021/01/18 08:20:37;;;;;;;19.33;10.90;;;6.80;99.90;;;;;;6121862;23;20391;-78
2021/01/18 08:31:22;;;;;;;17.00;10.90;;;7.00;99.90;;;;;;6065966;23;20396;-79
2021/01/18 08:34:19;;;;;;;16.00;10.63;;;6.80;99.90;;;;;;5952362;24;20478;-79
2021/01/18 08:48:11;;;;;;;20.00;12.30;;;7.60;99.90;;;;;;5952915;24;20392;-78
2021/01/18 08:51:48;;;;;;;18.07;12.10;;;7.50;99.90;;;;;;5906032;24;20463;-79
2021/01/18 08:59:18;;;;;;;28.50;15.10;;;7.50;99.90;;;;;;5997467;23;20474;-78
2021/01/18 09:02:06;;;;;;;19.87;13.30;;;7.40;99.90;;;;;;6050379;23;20884;-81
2021/01/18 09:04:48;;;;;;;23.47;12.80;;;7.40;99.90;;;;;;6122042;23;20447;-81
2021/01/18 09:08:27;;;;;;;32.93;13.90;;;7.50;99.90;;;;;;5995133;23;20399;-79
2021/01/18 09:12:13;;;;;;;21.07;12.77;;;7.20;99.90;;;;;;5934162;24;20386;-79
2021/01/18 09:15:33;;;;;;;21.07;11.20;;;6.90;99.90;;;;;;6031565;23;20526;-79
2021/01/18 09:18:33;;;;;;;21.50;12.47;;;6.90;99.90;;;;;;5964565;24;20794;-77
2021/01/18 09:21:43;;;;;;;20.40;13.00;;;6.90;99.90;;;;;;5963387;24;20431;-78
2021/01/18 09:24:27;;;;;;;20.33;11.43;;;6.90;99.90;;;;;;5977247;23;20440;-79
2021/01/18 09:30:48;;;;;;;18.30;10.77;;;7.00;99.90;;;;;;5847981;24;20519;-77
2021/01/18 09:33:28;;;;;;;20.73;11.97;;;7.00;99.90;;;;;;5842078;24;20729;-78
2021/01/18 09:36:19;;;;;;;17.37;10.30;;;7.20;99.90;;;;;;5837605;24;20535;-77
2021/01/18 09:38:51;;;;;;;14.40;10.53;;;7.10;99.90;;;;;;5843173;24;20421;-79
2021/01/18 09:41:42;;;;;;;15.63;11.10;;;7.10;99.90;;;;;;5843611;24;20485;-79
2021/01/18 09:44:37;;;;;;;22.60;10.70;;;7.10;99.90;;;;;;5842704;24;20452;-77
2021/01/18 09:47:29;;;;;;;15.17;9.03;;;7.40;99.90;;;;;;5818576;24;20523;-80
2021/01/18 09:51:02;;;;;;;;;;;;;;;;;;;;;
2021/01/18 09:54:28;;;;;;;17.20;10.40;;;7.50;99.90;;;;;;5795910;24;20810;-78
2021/01/18 09:57:22;;;;;;;14.87;10.20;;;7.70;99.90;;;;;;5853035;24;20471;-80
2021/01/18 10:03:51;;;;;;;13.83;9.00;;;7.40;99.90;;;;;;5827123;24;20419;-79
2021/01/18 10:11:13;;;;;;;13.67;7.60;;;7.60;99.90;;;;;;5936471;24;20766;-78
2021/01/18 10:22:18;;;;;;;;;;;;;;;;;;;;;
2021/01/18 10:35:30;;;;;;;;;;;;;;;;;;;;;
2021/01/18 10:39:02;;;;;;;13.23;4.47;;;7.90;99.90;;;;;;6176379;23;20394;-79
2021/01/18 10:42:17;;;;;;;;;;;;;;;;;;;;;
2021/01/18 10:50:06;;;;;;;12.40;4.23;;;7.60;99.90;;;;;;6151595;23;20445;-79
2021/01/18 11:02:17;;;;;;;8.17;3.43;;;7.90;99.90;;;;;;6159154;23;20450;-79
2021/01/18 11:05:09;;;;;;;9.90;3.80;;;8.30;99.90;;;;;;6168345;23;20439;-78
2021/01/18 11:11:22;;;;;;;7.50;2.97;;;8.30;99.90;;;;;;6118145;23;20437;-78
2021/01/18 11:14:49;;;;;;;7.90;4.20;;;8.10;99.90;;;;;;6116465;23;20419;-81
2021/01/18 11:17:47;;;;;;;8.60;3.17;;;8.30;99.90;;;;;;6130680;23;20404;-82
2021/01/18 11:20:46;;;;;;;5.87;2.97;;;8.60;99.90;;;;;;6133635;23;20433;-84
2021/01/18 11:23:25;;;;;;;12.73;3.60;;;8.70;99.90;;;;;;6070658;23;20419;-82
2021/01/18 11:26:10;;;;;;;12.20;3.60;;;8.90;99.90;;;;;;6131239;23;20490;-83
2021/01/18 11:28:59;;;;;;;6.63;3.70;;;8.90;99.90;;;;;;6098819;23;20454;-85
2021/01/18 11:32:34;;;;;;;;;;;;;;;;;;;;;
2021/01/18 11:35:41;;;;;;;7.73;3.57;;;8.70;99.90;;;;;;6162176;23;20469;-84
2021/01/18 11:38:17;;;;;;;6.33;3.50;;;8.90;99.90;;;;;;6186262;23;20432;-81
2021/01/18 11:41:15;;;;;;;8.17;2.90;;;8.80;99.90;;;;;;6184678;23;20414;-80
2021/01/18 11:50:06;;;;;;;;;;;;;;;;;;;;;
2021/01/18 11:53:30;;;;;;;10.43;3.07;;;8.90;99.90;;;;;;6179738;23;20458;-80
2021/01/18 11:56:50;;;;;;;;;;;;;;;;;;;;;
2021/01/18 11:59:26;;;;;;;3.73;2.37;;;8.50;99.90;;;;;;6154162;23;20426;-78
2021/01/18 12:02:31;;;;;;;12.10;2.57;;;8.20;99.90;;;;;;6124741;23;20450;-80
2021/01/18 12:08:31;;;;;;;8.03;2.70;;;8.10;99.90;;;;;;6083698;23;20801;-79
2021/01/18 12:11:54;;;;;;;;;;;;;;;;;;;;;
2021/01/18 12:15:04;;;;;;;;;;;;;;;;;;;;;
2021/01/18 12:21:51;;;;;;;7.10;2.87;;;8.50;99.90;;;;;;5965069;23;20465;-82
2021/01/18 12:25:00;;;;;;;5.63;2.10;;;8.40;99.90;;;;;;6008091;23;20481;-79
2021/01/18 12:28:00;;;;;;;5.10;2.00;;;8.40;99.90;;;;;;6006192;23;20418;-79
2021/01/18 12:31:05;;;;;;;5.20;2.20;;;8.40;99.90;;;;;;6026338;23;20402;-81
2021/01/18 12:34:00;;;;;;;7.33;2.53;;;8.40;99.90;;;;;;6020855;23;21060;-77
2021/01/18 12:36:43;;;;;;;10.30;2.60;;;8.60;99.90;;;;;;6044863;23;20481;-80
2021/01/18 12:40:23;;;;;;;5.83;2.93;;;8.60;99.90;;;;;;6055140;23;20428;-79
2021/01/18 12:47:14;;;;;;;9.23;3.03;;;8.50;99.90;;;;;;5915183;24;20969;-77
2021/01/18 12:50:15;;;;;;;5.67;2.43;;;8.40;99.90;;;;;;5979819;23;20478;-80
2021/01/18 12:54:15;;;;;;;;;;;;;;;;;;;;;
2021/01/18 13:01:39;;;;;;;7.10;2.30;;;8.40;99.90;;;;;;5893157;24;20411;-81
2021/01/18 13:08:27;;;;;;;12.47;2.97;;;8.60;99.90;;;;;;5982867;24;20486;-80
2021/01/18 13:11:26;;;;;;;4.73;2.50;;;8.60;99.90;;;;;;5880085;24;20407;-80
2021/01/18 13:14:51;;;;;;;6.50;2.37;;;8.60;99.90;;;;;;5888250;24;20458;-76
2021/01/18 13:28:45;;;;;;;8.60;2.70;;;8.40;99.90;;;;;;5952782;24;20409;-79
2021/01/18 13:35:26;;;;;;;6.63;3.67;;;8.30;99.90;;;;;;5952954;24;20413;-77
2021/01/18 13:38:23;;;;;;;12.97;4.50;;;8.30;99.90;;;;;;5957739;24;20413;-78
2021/01/18 13:46:24;;;;;;;7.23;4.13;;;8.20;99.90;;;;;;5932326;24;20517;-77
2021/01/18 13:49:21;;;;;;;5.37;3.27;;;8.20;99.90;;;;;;5857329;24;20411;-79
2021/01/18 13:53:28;;;;;;;6.70;2.60;;;8.20;99.90;;;;;;5896561;24;20419;-80
2021/01/18 14:00:47;;;;;;;6.30;2.20;;;8.20;99.90;;;;;;5868052;24;20408;-81
2021/01/18 14:03:46;;;;;;;8.77;2.63;;;8.20;99.90;;;;;;5802254;24;20543;-82
2021/01/18 14:06:48;;;;;;;3.63;2.40;;;8.30;99.90;;;;;;5849137;24;20940;-81
2021/01/18 14:10:01;;;;;;;8.60;2.80;;;8.20;99.90;;;;;;5934470;24;20447;-82
2021/01/18 14:16:14;;;;;;;9.47;2.83;;;8.30;99.90;;;;;;5916117;24;20521;-79
2021/01/18 14:18:49;;;;;;;7.07;3.13;;;8.40;99.90;;;;;;5955542;24;20415;-80
2021/01/18 14:24:45;;;;;;;5.40;3.10;;;8.40;99.90;;;;;;6076189;23;20454;-79
2021/01/18 14:27:51;;;;;;;9.93;3.27;;;8.40;99.90;;;;;;6191262;23;20437;-80
2021/01/18 14:31:14;;;;;;;6.20;3.27;;;8.60;99.90;;;;;;5971296;23;20428;-81
2021/01/18 14:35:01;;;;;;;5.93;2.93;;;8.70;99.90;;;;;;5992290;23;20439;-79
2021/01/18 14:37:52;;;;;;;6.60;3.03;;;8.60;99.90;;;;;;5941012;24;20460;-80
2021/01/18 14:40:58;;;;;;;11.30;3.17;;;8.70;99.90;;;;;;5918227;24;20748;-80
2021/01/18 14:47:54;;;;;;;6.70;2.80;;;8.70;99.90;;;;;;5998389;23;20439;-80
2021/01/18 14:51:32;;;;;;;9.17;2.67;;;8.40;99.90;;;;;;6016352;23;20471;-80
2021/01/18 14:54:17;;;;;;;;;;;;;;;;;;;;;
2021/01/18 15:00:37;;;;;;;5.80;2.87;;;8.30;99.90;;;;;;6181403;23;20425;-83
2021/01/18 15:03:43;;;;;;;8.73;2.20;;;8.30;99.90;;;;;;6168827;23;20386;-83
2021/01/18 15:07:07;;;;;;;3.43;2.37;;;8.20;99.90;;;;;;6182016;23;20409;-81
2021/01/18 15:10:12;;;;;;;5.33;2.70;;;8.20;99.90;;;;;;6181605;23;20450;-80
2021/01/18 15:19:18;;;;;;;6.90;2.60;;;8.30;99.90;;;;;;6168161;23;20441;-80
2021/01/18 15:22:58;;;;;;;7.07;4.10;;;8.30;99.90;;;;;;6086650;23;20423;-79
2021/01/18 15:26:33;;;;;;;13.83;3.23;;;8.80;99.90;;;;;;6163501;23;20502;-78
2021/01/18 15:29:58;;;;;;;;;;;;;;;;;;;;;
2021/01/18 15:37:00;;;;;;;7.27;2.70;;;8.40;99.90;;;;;;6034785;23;20486;-80
2021/01/18 15:40:30;;;;;;;;;;;;;;;;;;;;;
2021/01/18 15:43:55;;;;;;;;;;;;;;;;;;;;;
2021/01/18 15:46:33;;;;;;;5.00;3.03;;;8.10;99.90;;;;;;6152560;23;20490;-81
2021/01/18 15:49:47;;;;;;;5.97;3.73;;;8.30;99.90;;;;;;6155412;23;20393;-81
2021/01/18 15:52:25;;;;;;;6.80;3.10;;;8.30;99.90;;;;;;6168062;23;20442;-79
2021/01/18 15:55:35;;;;;;;7.07;3.30;;;8.30;99.90;;;;;;6151255;23;20525;-82
2021/01/18 15:58:58;;;;;;;4.67;2.87;;;8.20;99.90;;;;;;6130402;23;20419;-78
2021/01/18 16:02:38;;;;;;;;;;;;;;;;;;;;;
2021/01/18 16:10:44;;;;;;;7.73;3.97;;;8.00;99.90;;;;;;5860628;24;20381;-78
2021/01/18 16:20:00;;;;;;;4.63;2.80;;;8.10;99.90;;;;;;6158563;23;20521;-81
2021/01/18 16:23:56;;;;;;;;;;;;;;;;;;;;;
2021/01/18 16:26:30;;;;;;;7.60;2.90;;;7.80;99.90;;;;;;5943850;23;20421;-79
2021/01/18 16:33:05;;;;;;;5.30;3.40;;;7.90;99.90;;;;;;6013084;23;20467;-79
2021/01/18 16:36:10;;;;;;;3.73;2.90;;;8.00;99.90;;;;;;6123036;23;20420;-79
2021/01/18 16:43:01;;;;;;;4.90;2.80;;;8.10;99.90;;;;;;6077865;23;20511;-77
2021/01/18 16:49:57;;;;;;;;;;;;;;;;;;;;;
2021/01/18 16:53:11;;;;;;;8.27;3.20;;;7.90;99.90;;;;;;6050347;23;20419;-79
2021/01/18 16:56:01;;;;;;;7.10;3.50;;;7.90;99.90;;;;;;6154332;23;20458;-81
2021/01/18 16:59:42;;;;;;;5.40;3.30;;;7.90;99.90;;;;;;6156479;23;20411;-79
2021/01/18 17:02:38;;;;;;;;;;;;;;;;;;;;;
2021/01/18 17:05:50;;;;;;;5.13;3.37;;;7.90;99.90;;;;;;6173808;23;20443;-79
2021/01/18 17:09:23;;;;;;;8.77;3.83;;;7.80;99.90;;;;;;6168285;23;20422;-79
2021/01/18 17:12:22;;;;;;;4.87;3.23;;;7.90;99.90;;;;;;6094803;23;20480;-77
2021/01/18 17:15:40;;;;;;;5.47;3.23;;;8.00;99.90;;;;;;6093449;23;20438;-80
2021/01/18 17:19:23;;;;;;;6.43;3.60;;;7.70;99.90;;;;;;6071075;23;20444;-77
2021/01/18 17:22:25;;;;;;;;;;;;;;;;;;;;;
2021/01/18 17:25:24;;;;;;;4.30;3.13;;;7.80;99.90;;;;;;5985750;23;20595;-78
2021/01/18 17:31:57;;;;;;;4.27;2.63;;;7.70;99.90;;;;;;6035378;23;21024;-78
2021/01/18 17:51:25;;;;;;;3.83;2.40;;;7.70;99.90;;;;;;6162023;23;20561;-85
2021/01/18 17:54:30;;;;;;;4.37;2.60;;;7.90;99.90;;;;;;6127365;23;20429;-82
2021/01/18 18:03:54;;;;;;;3.40;2.50;;;8.00;99.90;;;;;;6108545;23;20442;-83
2021/01/18 18:07:05;;;;;;;4.73;3.37;;;7.70;99.90;;;;;;6072098;23;20741;-83
2021/01/18 18:10:05;;;;;;;;;;;;;;;;;;;;;
2021/01/18 18:13:38;;;;;;;2.87;2.57;;;7.90;99.90;;;;;;6060506;23;20438;-84
2021/01/18 18:16:42;;;;;;;4.53;2.80;;;8.00;99.90;;;;;;6043110;23;20450;-83
2021/01/18 18:19:31;;;;;;;4.50;2.90;;;7.70;99.90;;;;;;6011077;23;20402;-84
2021/01/18 18:22:15;;;;;;;6.10;2.70;;;7.80;99.90;;;;;;6049950;23;20421;-84
2021/01/18 18:25:34;;;;;;;3.67;3.17;;;7.70;99.90;;;;;;6067949;23;20428;-83
2021/01/18 18:28:46;;;;;;;6.50;2.90;;;7.70;99.90;;;;;;6013726;23;20403;-84
2021/01/18 18:31:51;;;;;;;4.40;3.20;;;7.60;99.90;;;;;;6012842;23;20530;-83
2021/01/18 18:35:02;;;;;;;4.87;3.17;;;7.50;99.90;;;;;;5931144;24;20442;-83
2021/01/18 18:38:07;;;;;;;3.70;2.87;;;7.50;99.90;;;;;;5911075;24;20457;-83
2021/01/18 18:41:23;;;;;;;7.70;3.17;;;7.50;99.90;;;;;;5932253;24;20426;-83
2021/01/18 18:44:29;;;;;;;6.47;3.30;;;7.50;99.90;;;;;;5909224;24;20418;-83
2021/01/18 18:47:16;;;;;;;6.27;3.70;;;7.50;99.90;;;;;;5922026;24;20436;-83
2021/01/18 18:50:33;;;;;;;4.47;3.47;;;7.50;99.90;;;;;;5945433;24;20447;-84
2021/01/18 18:53:37;;;;;;;5.90;3.70;;;7.50;99.90;;;;;;6099115;23;20403;-83
2021/01/18 18:56:43;;;;;;;7.03;3.60;;;7.50;99.90;;;;;;6161610;23;20443;-83
2021/01/18 18:59:54;;;;;;;4.87;3.40;;;7.70;99.90;;;;;;6089620;23;20460;-83
2021/01/18 19:03:16;;;;;;;8.00;3.93;;;8.00;99.90;;;;;;6135454;23;20404;-83
2021/01/18 19:06:17;;;;;;;5.37;3.77;;;7.80;99.90;;;;;;6160594;23;20463;-80
2021/01/18 19:15:49;;;;;;;4.90;3.50;;;7.70;99.90;;;;;;6134853;23;20430;-85
2021/01/18 19:19:07;;;;;;;;;;;;;;;;;;;;;
2021/01/18 19:22:39;;;;;;;5.20;3.80;;;7.70;99.90;;;;;;5998873;24;20413;-85
2021/01/18 19:29:14;;;;;;;4.60;3.50;;;7.70;99.90;;;;;;5883787;24;20404;-84
2021/01/18 19:53:49;;;;;;;6.70;4.70;;;7.80;99.90;;;;;;6166387;23;20445;-84
2021/01/18 20:01:08;;;;;;;4.57;3.63;;;7.60;99.90;;;;;;6014626;23;20388;-83
2021/01/18 20:15:48;;;;;;;6.33;4.37;;;7.50;99.90;;;;;;5938751;24;20843;-83
2021/01/18 20:18:56;;;;;;;6.90;4.30;;;7.70;99.90;;;;;;5907080;24;20405;-84
2021/01/18 20:22:37;;;;;;;7.40;4.30;;;7.50;99.90;;;;;;5940574;24;20450;-84
2021/01/18 20:26:17;;;;;;;4.40;4.00;;;7.40;99.90;;;;;;5930099;24;20441;-85
2021/01/18 20:29:23;;;;;;;7.70;4.03;;;7.30;99.90;;;;;;5901822;24;20406;-84
2021/01/18 20:36:15;;;;;;;;;;;;;;;;;;;;;
2021/01/18 20:39:45;;;;;;;6.07;3.60;;;7.80;99.90;;;;;;5836396;24;20426;-83
2021/01/18 20:42:44;;;;;;;7.00;4.33;;;7.60;99.90;;;;;;5860179;24;20438;-85
2021/01/18 20:46:27;;;;;;;4.20;3.40;;;7.90;99.90;;;;;;5914336;24;20487;-85
2021/01/18 20:53:25;;;;;;;4.80;4.30;;;7.70;99.90;;;;;;5968632;23;20408;-87
2021/01/18 20:56:15;;;;;;;4.33;3.70;;;8.00;99.90;;;;;;5840326;24;20435;-85
2021/01/18 20:59:35;;;;;;;5.00;4.33;;;8.00;99.90;;;;;;5830969;24;20396;-87
2021/01/18 21:02:47;;;;;;;5.57;4.20;;;7.70;99.90;;;;;;5848636;24;20895;-84
2021/01/18 21:05:48;;;;;;;;;;;;;;;;;;;;;
2021/01/18 21:08:52;;;;;;;5.90;5.30;;;7.70;99.90;;;;;;6121274;23;20667;-86
2021/01/18 21:15:27;;;;;;;5.67;4.80;;;8.00;99.90;;;;;;6095726;23;20489;-84
2021/01/18 21:18:34;;;;;;;6.77;5.67;;;8.20;99.90;;;;;;6123949;23;20450;-86
2021/01/18 21:21:50;;;;;;;5.43;4.93;;;8.20;99.90;;;;;;6085407;23;20411;-85
2021/01/18 21:24:36;;;;;;;5.93;4.00;;;8.10;99.90;;;;;;5954782;24;20883;-85
2021/01/18 21:27:24;;;;;;;3.90;3.50;;;8.00;99.90;;;;;;5955361;24;20950;-86
2021/01/18 21:30:38;;;;;;;4.00;3.33;;;7.90;99.90;;;;;;5945670;24;20447;-85
2021/01/18 21:33:36;;;;;;;3.80;2.80;;;7.90;99.90;;;;;;5974944;23;20428;-85
2021/01/18 21:36:54;;;;;;;;;;;;;;;;;;;;;
2021/01/18 21:39:37;;;;;;;2.80;2.40;;;7.90;99.90;;;;;;6033464;23;20427;-85
2021/01/18 21:51:50;;;;;;;2.67;2.30;;;7.80;99.90;;;;;;6198270;23;20438;-87